• Join FlightAware (Why Join?)
  • Login
  • US Flag 
12:18AM EDT


 

Airport Tracker/Info


-or-


 

Live Flight TrackerFlight Track Log ✈ FSR411 ✈ 26-Feb-2014 ✈ KCMI - KMDW

Flight Track Log - Related Links

Times and Time Zones

All times are in EST time to prevent confusion due to time zone crossing. See the FSR411 flight status page for this flight to view local times or setup timezone preferences in your user account.

Time Position Orientation Groundspeed Altitude Reporting Facility
EST Latitude Longitude Course Direction KTS MPH feet Rate Location/Type
05:11PM 40.1194 -88.3967 299° West 212 244 7,300  Level Chicago Center
05:12PM 40.1508 -88.4722 299° West 233 268 9,900 1,740 Climbing Chicago Center
05:13PM 40.1906 -88.5536 303° West 262 302 11,000 480 Climbing Chicago Center
05:14PM 40.2372 -88.6497 302° West 309 356 11,000  Level Chicago Center
05:15PM 40.2797 -88.7506 299° West 314 361 11,000  Level Chicago Center
05:16PM 40.3258 -88.8497 301° West 318 366 11,000  Level Chicago Center
05:17PM 40.4000 -88.9392 317° Northwest 334 384 11,000  Level Chicago Center
05:18PM 40.4969 -88.9217 North 353 406 11,000  Level Chicago Center
05:19PM 40.5936 -88.9003 10° North 353 406 11,100  Climbing Chicago Center
05:20PM 40.6917 -88.8797 North 355 409 11,100  Level Chicago Center
05:21PM 40.7864 -88.8597 North 350 403 11,100  Level Chicago Center
05:22PM 40.8958 -88.8339 10° North 349 402 11,100 -240 Level Chicago Center
05:23PM 40.9858 -88.7794 25° Northeast 355 409 10,700 -780 Descending Chicago Center
05:24PM 41.0619 -88.7428 20° North 308 354 9,600 -1,500 Descending Chicago Center
05:25PM 41.1294 -88.6975 27° Northeast 279 321 7,700 -1,680 Descending Chicago Center
05:26PM 41.1972 -88.6425 31° Northeast 282 325 6,100 -900 Descending Chicago Center
05:27PM 41.2767 -88.5819 30° Northeast 276 318 5,900 -120 Descending Chicago Center
05:28PM 41.3431 -88.5311 30° Northeast 276 318 5,900  Level Chicago Center
05:29PM 41.4028 -88.4639 40° Northeast 281 323 5,900  Level Chicago Center
05:30PM 41.4525 -88.3775 52° Northeast 290 334 5,900  Level Chicago Center
05:31PM 41.5044 -88.2928 51° Northeast 291 335 5,900  Level Chicago Center
05:32PM 41.5483 -88.2000 58° Northeast 291 335 5,900 -60 Level Chicago Center
05:33PM 41.5914 -88.1044 59° Northeast 294 338 5,800 -720 Descending Chicago Center
05:34PM 41.6433 -87.9928 58° Northeast 293 337 4,500 -960 Descending Chicago Center
05:35PM 41.6861 -87.9006 58° Northeast 292 336 3,900 -300 Descending Chicago Center
05:37PM 41.7281 -87.8089 58° Northeast 290 334 3,900  Level Chicago Center
05:38PM 41.7581 -87.7100 68° East 291 335 3,900 -420 Level Chicago Center
05:39PM 41.7608 -87.6172 88° East 267 307 3,100 -780 Descending Chicago Center
05:40PM 41.7764 -87.5528 72° East 222 255 2,400 -360 Descending Chicago Center
05:41PM 41.8286 -87.5433 North 199 229 2,400  Level Chicago Center
05:42PM 41.8533 -87.5889 306° West 178 205 2,400 -60 Level Chicago Center
05:43PM 41.8439 -87.6428 257° West 159 183 2,300 -360 Descending Chicago Center
05:44PM 41.8364 -87.6886 258° West 143 165 1,700 -540 Descending Chicago Center
05:45PM 41.8147 -87.7153 223° Southwest 122 140 1,300 -300 Descending Chicago Center
05:46PM 41.7906 -87.7456 223° Southwest 116 133 1,100 -240 Descending Chicago Center